sensor_id;sensor_type;location;lat;lon;timestamp;pressure;altitude;pressure_sealevel;temperature;humidity
36932;BME280;22847;42.654;23.370;2023-04-07T00:01:18;94412.41;;;5.65;43.41
36932;BME280;22847;42.654;23.370;2023-04-07T00:03:44;94251.78;;;4.62;42.95
36932;BME280;22847;42.654;23.370;2023-04-07T00:06:09;94403.03;;;5.53;42.84
36932;BME280;22847;42.654;23.370;2023-04-07T00:08:35;94397.81;;;5.64;42.76
36932;BME280;22847;42.654;23.370;2023-04-07T00:11:00;94053.59;;;3.57;42.78
36932;BME280;22847;42.654;23.370;2023-04-07T00:13:26;94326.84;;;5.14;42.83
36932;BME280;22847;42.654;23.370;2023-04-07T00:15:51;94341.31;;;5.06;43.28
36932;BME280;22847;42.654;23.370;2023-04-07T00:18:17;94351.19;;;4.56;44.58
36932;BME280;22847;42.654;23.370;2023-04-07T00:20:42;94398.28;;;4.25;45.53
36932;BME280;22847;42.654;23.370;2023-04-07T00:23:07;94373.66;;;4.21;45.84
36932;BME280;22847;42.654;23.370;2023-04-07T00:25:33;94443.50;;;4.99;44.57
36932;BME280;22847;42.654;23.370;2023-04-07T00:27:58;94352.34;;;5.08;43.55
36932;BME280;22847;42.654;23.370;2023-04-07T00:30:24;94211.47;;;4.16;42.74
36932;BME280;22847;42.654;23.370;2023-04-07T00:32:50;94356.91;;;5.15;42.83
36932;BME280;22847;42.654;23.370;2023-04-07T00:35:16;94222.84;;;4.36;42.58
36932;BME280;22847;42.654;23.370;2023-04-07T00:37:41;94197.72;;;3.71;43.45
36932;BME280;22847;42.654;23.370;2023-04-07T00:40:07;94381.25;;;5.02;43.36
36932;BME280;22847;42.654;23.370;2023-04-07T00:42:33;94362.09;;;5.26;42.94
36932;BME280;22847;42.654;23.370;2023-04-07T00:44:59;94394.81;;;5.37;42.67
36932;BME280;22847;42.654;23.370;2023-04-07T00:47:24;94377.88;;;5.55;42.30
36932;BME280;22847;42.654;23.370;2023-04-07T00:49:49;94400.66;;;5.50;42.32
36932;BME280;22847;42.654;23.370;2023-04-07T00:52:16;94324.06;;;4.95;42.64
36932;BME280;22847;42.654;23.370;2023-04-07T00:54:41;94174.06;;;3.99;42.43
36932;BME280;22847;42.654;23.370;2023-04-07T00:57:08;94361.47;;;5.23;42.46
36932;BME280;22847;42.654;23.370;2023-04-07T00:59:34;94211.59;;;4.03;42.87
36932;BME280;22847;42.654;23.370;2023-04-07T01:02:09;94397.47;;;5.04;43.09
36932;BME280;22847;42.654;23.370;2023-04-07T01:04:43;94422.69;;;4.89;43.44
36932;BME280;22847;42.654;23.370;2023-04-07T01:07:17;94364.44;;;4.96;43.00
36932;BME280;22847;42.654;23.370;2023-04-07T01:09:53;94206.06;;;4.19;42.56
36932;BME280;22847;42.654;23.370;2023-04-07T01:12:28;94389.38;;;5.62;41.95
36932;BME280;22847;42.654;23.370;2023-04-07T01:15:11;94354.38;;;5.04;42.42
36932;BME280;22847;42.654;23.370;2023-04-07T01:17:42;94333.56;;;5.06;42.62
36932;BME280;22847;42.654;23.370;2023-04-07T01:20:13;94372.59;;;5.57;42.04
36932;BME280;22847;42.654;23.370;2023-04-07T01:22:51;94387.09;;;5.80;41.54
36932;BME280;22847;42.654;23.370;2023-04-07T01:30:34;94289.38;;;5.20;41.50
36932;BME280;22847;42.654;23.370;2023-04-07T01:33:02;94213.09;;;4.93;40.96
36932;BME280;22847;42.654;23.370;2023-04-07T01:35:32;94138.41;;;3.93;41.98
36932;BME280;22847;42.654;23.370;2023-04-07T01:37:59;94380.66;;;5.20;42.84
36932;BME280;22847;42.654;23.370;2023-04-07T01:40:26;94377.00;;;5.01;43.39
36932;BME280;22847;42.654;23.370;2023-04-07T01:42:53;94348.47;;;4.91;43.67
36932;BME280;22847;42.654;23.370;2023-04-07T01:45:19;94374.56;;;4.55;45.40
36932;BME280;22847;42.654;23.370;2023-04-07T01:47:45;94261.13;;;3.85;47.64
36932;BME280;22847;42.654;23.370;2023-04-07T01:50:11;94357.78;;;4.71;48.11
36932;BME280;22847;42.654;23.370;2023-04-07T01:52:37;94351.41;;;4.98;46.98
36932;BME280;22847;42.654;23.370;2023-04-07T01:55:04;94285.31;;;3.95;47.13
36932;BME280;22847;42.654;23.370;2023-04-07T01:57:30;94120.41;;;2.68;51.62
36932;BME280;22847;42.654;23.370;2023-04-07T01:59:56;94337.69;;;4.53;51.72
36932;BME280;22847;42.654;23.370;2023-04-07T02:02:21;94346.38;;;4.63;52.41
36932;BME280;22847;42.654;23.370;2023-04-07T02:05:04;94346.13;;;3.28;56.52
36932;BME280;22847;42.654;23.370;2023-04-07T02:07:52;94379.00;;;3.24;58.26
36932;BME280;22847;42.654;23.370;2023-04-07T02:10:22;94365.09;;;4.09;55.35
36932;BME280;22847;42.654;23.370;2023-04-07T02:12:50;94363.16;;;4.57;54.18
36932;BME280;22847;42.654;23.370;2023-04-07T02:15:17;94134.81;;;3.17;54.04
36932;BME280;22847;42.654;23.370;2023-04-07T02:17:47;94395.31;;;4.86;53.59
36932;BME280;22847;42.654;23.370;2023-04-07T02:20:15;94325.38;;;4.67;51.80
36932;BME280;22847;42.654;23.370;2023-04-07T02:22:41;94341.22;;;4.40;53.61
36932;BME280;22847;42.654;23.370;2023-04-07T02:27:52;94354.78;;;3.50;56.42
36932;BME280;22847;42.654;23.370;2023-04-07T02:30:18;94174.28;;;2.22;57.29
36932;BME280;22847;42.654;23.370;2023-04-07T02:32:44;94317.53;;;3.89;54.99
36932;BME280;22847;42.654;23.370;2023-04-07T02:35:10;94246.13;;;3.33;54.85
36932;BME280;22847;42.654;23.370;2023-04-07T02:37:36;94333.53;;;3.71;55.35
36932;BME280;22847;42.654;23.370;2023-04-07T02:40:02;94226.63;;;3.18;53.09
36932;BME280;22847;42.654;23.370;2023-04-07T02:42:28;94260.47;;;3.48;53.49
36932;BME280;22847;42.654;23.370;2023-04-07T02:44:53;94022.94;;;2.63;52.66
36932;BME280;22847;42.654;23.370;2023-04-07T02:47:19;94337.97;;;4.03;54.62
36932;BME280;22847;42.654;23.370;2023-04-07T02:49:44;94328.00;;;3.64;56.63
36932;BME280;22847;42.654;23.370;2023-04-07T02:52:10;94406.34;;;4.09;56.78
36932;BME280;22847;42.654;23.370;2023-04-07T02:54:36;94206.03;;;2.46;58.04
36932;BME280;22847;42.654;23.370;2023-04-07T02:57:01;94284.13;;;3.53;56.28
36932;BME280;22847;42.654;23.370;2023-04-07T02:59:26;94221.31;;;2.84;57.74
36932;BME280;22847;42.654;23.370;2023-04-07T03:01:52;94381.34;;;3.75;57.60
36932;BME280;22847;42.654;23.370;2023-04-07T03:04:17;94393.66;;;4.41;56.38
36932;BME280;22847;42.654;23.370;2023-04-07T03:06:42;94327.38;;;3.84;56.14
36932;BME280;22847;42.654;23.370;2023-04-07T03:09:08;94180.47;;;2.56;57.41
36932;BME280;22847;42.654;23.370;2023-04-07T03:11:33;94170.03;;;1.97;58.83
36932;BME280;22847;42.654;23.370;2023-04-07T03:13:59;94298.03;;;2.92;58.58
36932;BME280;22847;42.654;23.370;2023-04-07T03:16:24;94353.34;;;4.05;56.95
36932;BME280;22847;42.654;23.370;2023-04-07T03:18:49;94187.72;;;3.44;55.26
36932;BME280;22847;42.654;23.370;2023-04-07T03:21:15;94379.13;;;4.84;54.61
36932;BME280;22847;42.654;23.370;2023-04-07T03:23:40;94383.38;;;5.08;53.94
36932;BME280;22847;42.654;23.370;2023-04-07T03:26:05;94354.25;;;4.94;53.92
36932;BME280;22847;42.654;23.370;2023-04-07T03:28:31;94372.97;;;5.41;50.83
36932;BME280;22847;42.654;23.370;2023-04-07T03:30:56;94345.13;;;5.33;50.38
36932;BME280;22847;42.654;23.370;2023-04-07T03:33:22;94150.00;;;4.21;48.73
36932;BME280;22847;42.654;23.370;2023-04-07T03:35:47;94354.69;;;5.65;47.88
36932;BME280;22847;42.654;23.370;2023-04-07T03:38:12;94433.56;;;5.59;46.43
36932;BME280;22847;42.654;23.370;2023-04-07T03:40:38;94356.78;;;5.28;46.49
36932;BME280;22847;42.654;23.370;2023-04-07T03:43:03;94310.75;;;5.22;46.57
36932;BME280;22847;42.654;23.370;2023-04-07T03:45:29;94337.19;;;5.57;44.20
36932;BME280;22847;42.654;23.370;2023-04-07T03:47:54;94355.25;;;5.68;43.52
36932;BME280;22847;42.654;23.370;2023-04-07T03:50:20;94368.72;;;5.51;43.98
36932;BME280;22847;42.654;23.370;2023-04-07T03:52:45;94319.28;;;5.45;43.30
36932;BME280;22847;42.654;23.370;2023-04-07T03:55:11;94340.63;;;5.47;43.39
36932;BME280;22847;42.654;23.370;2023-04-07T03:57:36;94321.91;;;5.54;42.98
36932;BME280;22847;42.654;23.370;2023-04-07T04:00:03;94316.31;;;5.49;42.88
36932;BME280;22847;42.654;23.370;2023-04-07T04:02:29;94398.63;;;5.76;42.74
36932;BME280;22847;42.654;23.370;2023-04-07T04:04:54;94349.19;;;5.58;43.31
36932;BME280;22847;42.654;23.370;2023-04-07T04:07:20;94125.38;;;4.06;43.60
36932;BME280;22847;42.654;23.370;2023-04-07T04:09:45;94389.75;;;5.47;43.96
36932;BME280;22847;42.654;23.370;2023-04-07T04:12:11;94399.28;;;5.46;45.78
36932;BME280;22847;42.654;23.370;2023-04-07T04:14:36;94152.25;;;3.59;49.67
36932;BME280;22847;42.654;23.370;2023-04-07T04:17:01;94407.50;;;4.51;52.37
36932;BME280;22847;42.654;23.370;2023-04-07T04:19:27;94376.53;;;4.51;52.85
36932;BME280;22847;42.654;23.370;2023-04-07T04:21:52;94369.09;;;4.24;54.19
36932;BME280;22847;42.654;23.370;2023-04-07T04:24:17;94353.78;;;3.40;56.11
36932;BME280;22847;42.654;23.370;2023-04-07T04:26:43;94351.72;;;3.45;57.00
36932;BME280;22847;42.654;23.370;2023-04-07T04:29:08;94354.53;;;4.12;54.68
36932;BME280;22847;42.654;23.370;2023-04-07T04:31:34;94159.06;;;3.14;53.63
36932;BME280;22847;42.654;23.370;2023-04-07T04:33:59;94419.31;;;4.31;54.71
36932;BME280;22847;42.654;23.370;2023-04-07T04:36:25;94361.13;;;3.81;56.21
36932;BME280;22847;42.654;23.370;2023-04-07T04:38:51;94415.69;;;4.34;55.99
36932;BME280;22847;42.654;23.370;2023-04-07T04:41:16;94414.41;;;4.50;55.22
36932;BME280;22847;42.654;23.370;2023-04-07T04:43:42;94417.44;;;4.90;54.19
36932;BME280;22847;42.654;23.370;2023-04-07T04:46:07;94322.50;;;4.15;53.99
36932;BME280;22847;42.654;23.370;2023-04-07T04:48:33;94398.94;;;4.04;56.23
36932;BME280;22847;42.654;23.370;2023-04-07T04:50:58;94235.53;;;2.53;57.04
36932;BME280;22847;42.654;23.370;2023-04-07T04:53:23;94399.63;;;3.95;55.76
36932;BME280;22847;42.654;23.370;2023-04-07T04:55:49;94280.88;;;3.51;55.25
36932;BME280;22847;42.654;23.370;2023-04-07T04:58:18;94430.81;;;4.38;54.97
36932;BME280;22847;42.654;23.370;2023-04-07T05:00:43;94417.75;;;4.64;53.14
36932;BME280;22847;42.654;23.370;2023-04-07T05:03:09;94407.56;;;3.92;53.99
36932;BME280;22847;42.654;23.370;2023-04-07T05:05:34;94430.66;;;4.18;52.44
36932;BME280;22847;42.654;23.370;2023-04-07T05:07:59;94440.66;;;4.33;52.41
36932;BME280;22847;42.654;23.370;2023-04-07T05:10:25;94427.66;;;4.35;52.24
36932;BME280;22847;42.654;23.370;2023-04-07T05:12:50;94379.09;;;4.40;52.58
36932;BME280;22847;42.654;23.370;2023-04-07T05:15:16;94425.72;;;4.83;52.82
36932;BME280;22847;42.654;23.370;2023-04-07T05:17:41;94400.81;;;4.60;52.92
36932;BME280;22847;42.654;23.370;2023-04-07T05:20:08;94328.28;;;3.83;53.97
36932;BME280;22847;42.654;23.370;2023-04-07T05:22:35;94382.06;;;4.58;53.29
36932;BME280;22847;42.654;23.370;2023-04-07T05:25:01;94277.72;;;4.27;52.66
36932;BME280;22847;42.654;23.370;2023-04-07T05:27:26;94413.09;;;6.42;50.14
36932;BME280;22847;42.654;23.370;2023-04-07T05:29:52;94342.28;;;7.23;47.26
36932;BME280;22847;42.654;23.370;2023-04-07T05:32:18;94474.09;;;8.07;45.19
36932;BME280;22847;42.654;23.370;2023-04-07T05:34:43;94307.94;;;7.59;44.73
36932;BME280;22847;42.654;23.370;2023-04-07T05:37:09;94447.25;;;8.37;44.63
36932;BME280;22847;42.654;23.370;2023-04-07T05:39:34;94227.53;;;7.50;43.90
36932;BME280;22847;42.654;23.370;2023-04-07T05:42:00;94256.06;;;8.81;41.28
36932;BME280;22847;42.654;23.370;2023-04-07T05:44:26;94450.91;;;9.66;40.83
36932;BME280;22847;42.654;23.370;2023-04-07T05:46:51;94407.50;;;9.84;39.90
36932;BME280;22847;42.654;23.370;2023-04-07T05:49:17;94233.72;;;9.16;39.07
36932;BME280;22847;42.654;23.370;2023-04-07T05:51:42;94395.81;;;9.71;39.39
36932;BME280;22847;42.654;23.370;2023-04-07T05:54:07;94391.50;;;8.88;40.83
36932;BME280;22847;42.654;23.370;2023-04-07T05:56:33;94443.41;;;8.41;42.97
36932;BME280;22847;42.654;23.370;2023-04-07T05:58:58;94296.72;;;8.36;41.02
36932;BME280;22847;42.654;23.370;2023-04-07T06:01:24;94441.59;;;10.09;39.41
36932;BME280;22847;42.654;23.370;2023-04-07T06:03:50;94245.28;;;8.76;39.05
36932;BME280;22847;42.654;23.370;2023-04-07T06:06:15;94275.97;;;9.00;38.75
36932;BME280;22847;42.654;23.370;2023-04-07T06:08:41;94440.53;;;8.54;41.62
36932;BME280;22847;42.654;23.370;2023-04-07T06:11:06;94447.56;;;7.85;44.37
36932;BME280;22847;42.654;23.370;2023-04-07T06:13:32;94253.09;;;6.86;44.40
36932;BME280;22847;42.654;23.370;2023-04-07T06:15:57;94422.06;;;8.28;43.25
36932;BME280;22847;42.654;23.370;2023-04-07T06:18:22;94229.94;;;7.99;41.79
36932;BME280;22847;42.654;23.370;2023-04-07T06:20:48;94367.56;;;9.94;39.76
36932;BME280;22847;42.654;23.370;2023-04-07T06:23:13;94383.78;;;10.05;38.86
36932;BME280;22847;42.654;23.370;2023-04-07T06:25:39;94431.22;;;10.80;38.42
36932;BME280;22847;42.654;23.370;2023-04-07T06:28:04;94434.94;;;11.21;37.52
36932;BME280;22847;42.654;23.370;2023-04-07T06:30:30;94396.78;;;11.28;36.40
36932;BME280;22847;42.654;23.370;2023-04-07T06:32:55;94413.53;;;11.17;36.59
36932;BME280;22847;42.654;23.370;2023-04-07T06:35:21;94437.13;;;9.83;38.98
36932;BME280;22847;42.654;23.370;2023-04-07T06:37:46;94432.66;;;9.76;38.95
36932;BME280;22847;42.654;23.370;2023-04-07T06:40:11;94427.34;;;10.84;37.34
36932;BME280;22847;42.654;23.370;2023-04-07T06:42:37;94334.38;;;10.74;36.41
36932;BME280;22847;42.654;23.370;2023-04-07T06:45:02;94422.84;;;11.79;36.33
36932;BME280;22847;42.654;23.370;2023-04-07T06:47:28;94414.84;;;10.52;37.81
36932;BME280;22847;42.654;23.370;2023-04-07T06:49:53;94413.06;;;10.96;36.41
36932;BME280;22847;42.654;23.370;2023-04-07T06:52:18;94453.66;;;11.16;36.86
36932;BME280;22847;42.654;23.370;2023-04-07T06:54:44;94455.84;;;11.03;37.09
36932;BME280;22847;42.654;23.370;2023-04-07T06:57:10;94438.53;;;11.87;36.36
36932;BME280;22847;42.654;23.370;2023-04-07T06:59:53;94296.16;;;11.25;35.68
36932;BME280;22847;42.654;23.370;2023-04-07T07:02:19;94290.59;;;11.86;34.54
36932;BME280;22847;42.654;23.370;2023-04-07T07:04:44;94403.69;;;13.26;33.85
36932;BME280;22847;42.654;23.370;2023-04-07T07:07:10;94430.19;;;12.74;34.25
36932;BME280;22847;42.654;23.370;2023-04-07T07:09:35;94424.47;;;13.19;34.58
36932;BME280;22847;42.654;23.370;2023-04-07T07:12:00;94431.00;;;13.78;32.84
36932;BME280;22847;42.654;23.370;2023-04-07T07:14:26;94420.84;;;14.22;32.00
36932;BME280;22847;42.654;23.370;2023-04-07T07:16:52;94412.97;;;14.22;30.87
36932;BME280;22847;42.654;23.370;2023-04-07T07:19:17;94453.75;;;14.56;30.54
36932;BME280;22847;42.654;23.370;2023-04-07T07:21:43;94455.88;;;14.83;30.21
36932;BME280;22847;42.654;23.370;2023-04-07T07:24:08;94405.75;;;15.30;30.52
36932;BME280;22847;42.654;23.370;2023-04-07T07:26:33;94405.88;;;15.51;30.08
36932;BME280;22847;42.654;23.370;2023-04-07T07:28:59;94265.50;;;14.35;30.44
36932;BME280;22847;42.654;23.370;2023-04-07T07:31:24;94387.50;;;15.14;30.60
36932;BME280;22847;42.654;23.370;2023-04-07T07:33:49;94473.41;;;15.66;29.55
36932;BME280;22847;42.654;23.370;2023-04-07T07:36:16;94387.25;;;14.49;27.97
36932;BME280;22847;42.654;23.370;2023-04-07T07:38:41;94461.22;;;13.58;29.32
36932;BME280;22847;42.654;23.370;2023-04-07T07:41:07;94457.53;;;13.20;29.84
36932;BME280;22847;42.654;23.370;2023-04-07T07:43:32;94428.59;;;13.14;29.68
36932;BME280;22847;42.654;23.370;2023-04-07T07:45:58;94290.47;;;11.96;29.98
36932;BME280;22847;42.654;23.370;2023-04-07T07:48:23;94461.06;;;13.52;29.78
36932;BME280;22847;42.654;23.370;2023-04-07T07:50:50;94424.75;;;13.49;29.71
36932;BME280;22847;42.654;23.370;2023-04-07T07:53:16;94253.22;;;11.94;29.77
36932;BME280;22847;42.654;23.370;2023-04-07T07:55:42;94456.06;;;13.18;28.74
36932;BME280;22847;42.654;23.370;2023-04-07T07:58:07;94298.41;;;11.70;28.74
36932;BME280;22847;42.654;23.370;2023-04-07T08:00:32;94403.53;;;12.30;29.28
36932;BME280;22847;42.654;23.370;2023-04-07T08:02:58;94463.50;;;12.32;30.53
36932;BME280;22847;42.654;23.370;2023-04-07T08:05:24;94473.34;;;12.70;31.21
36932;BME280;22847;42.654;23.370;2023-04-07T08:07:52;94453.25;;;12.79;29.48
36932;BME280;22847;42.654;23.370;2023-04-07T08:10:17;94435.75;;;12.79;29.97
36932;BME280;22847;42.654;23.370;2023-04-07T08:12:44;94441.81;;;12.72;29.41
36932;BME280;22847;42.654;23.370;2023-04-07T08:15:10;94370.84;;;11.68;30.54
36932;BME280;22847;42.654;23.370;2023-04-07T08:17:35;94414.06;;;11.88;30.26
36932;BME280;22847;42.654;23.370;2023-04-07T08:20:01;94456.97;;;11.86;31.13
36932;BME280;22847;42.654;23.370;2023-04-07T08:22:28;94455.78;;;12.22;30.37
36932;BME280;22847;42.654;23.370;2023-04-07T08:24:53;94277.91;;;11.33;30.18
36932;BME280;22847;42.654;23.370;2023-04-07T08:27:19;94433.78;;;12.33;29.79
36932;BME280;22847;42.654;23.370;2023-04-07T08:29:47;94451.78;;;12.76;29.14
36932;BME280;22847;42.654;23.370;2023-04-07T08:32:13;94451.31;;;13.05;29.37
36932;BME280;22847;42.654;23.370;2023-04-07T08:34:38;94414.66;;;12.89;30.02
36932;BME280;22847;42.654;23.370;2023-04-07T08:37:04;94477.16;;;13.16;29.90
36932;BME280;22847;42.654;23.370;2023-04-07T08:39:29;94294.22;;;12.50;30.56
36932;BME280;22847;42.654;23.370;2023-04-07T08:41:55;94432.03;;;13.69;29.18
36932;BME280;22847;42.654;23.370;2023-04-07T08:44:22;94387.34;;;13.16;29.35
36932;BME280;22847;42.654;23.370;2023-04-07T08:46:50;94428.59;;;13.14;28.26
36932;BME280;22847;42.654;23.370;2023-04-07T08:49:16;94216.31;;;12.13;28.27
36932;BME280;22847;42.654;23.370;2023-04-07T08:51:44;94384.25;;;12.64;29.36
36932;BME280;22847;42.654;23.370;2023-04-07T08:54:13;94418.75;;;13.00;30.66
36932;BME280;22847;42.654;23.370;2023-04-07T08:56:41;94407.28;;;13.17;28.71
36932;BME280;22847;42.654;23.370;2023-04-07T08:59:09;94450.47;;;13.05;28.51
36932;BME280;22847;42.654;23.370;2023-04-07T09:01:35;94286.69;;;11.90;30.35
36932;BME280;22847;42.654;23.370;2023-04-07T09:04:02;94436.06;;;12.92;28.63
36932;BME280;22847;42.654;23.370;2023-04-07T09:06:32;94429.88;;;12.77;29.75
36932;BME280;22847;42.654;23.370;2023-04-07T09:09:01;94483.69;;;13.20;29.99
36932;BME280;22847;42.654;23.370;2023-04-07T09:11:28;94457.16;;;13.48;29.00
36932;BME280;22847;42.654;23.370;2023-04-07T09:13:54;94395.50;;;12.88;29.78
36932;BME280;22847;42.654;23.370;2023-04-07T09:16:20;94444.63;;;13.19;29.09
36932;BME280;22847;42.654;23.370;2023-04-07T09:18:46;94440.41;;;13.65;28.92
36932;BME280;22847;42.654;23.370;2023-04-07T09:21:11;94442.50;;;13.77;28.15
36932;BME280;22847;42.654;23.370;2023-04-07T09:23:38;94451.00;;;13.79;29.04
36932;BME280;22847;42.654;23.370;2023-04-07T09:28:44;94455.72;;;13.29;28.28
36932;BME280;22847;42.654;23.370;2023-04-07T09:31:10;94413.53;;;12.59;28.29
36932;BME280;22847;42.654;23.370;2023-04-07T09:33:36;94267.25;;;11.85;28.83
36932;BME280;22847;42.654;23.370;2023-04-07T09:36:03;94478.28;;;12.89;30.09
36932;BME280;22847;42.654;23.370;2023-04-07T09:38:39;94460.56;;;12.43;30.53
36932;BME280;22847;42.654;23.370;2023-04-07T09:41:06;94452.13;;;12.89;30.36
36932;BME280;22847;42.654;23.370;2023-04-07T09:43:35;94462.25;;;12.84;30.85
36932;BME280;22847;42.654;23.370;2023-04-07T09:48:33;94184.47;;;10.95;31.35
36932;BME280;22847;42.654;23.370;2023-04-07T09:51:10;94466.16;;;12.88;31.13
36932;BME280;22847;42.654;23.370;2023-04-07T09:53:51;94418.41;;;12.38;29.91
36932;BME280;22847;42.654;23.370;2023-04-07T09:56:20;94458.28;;;12.32;30.44
36932;BME280;22847;42.654;23.370;2023-04-07T09:58:49;94456.78;;;12.29;31.12
36932;BME280;22847;42.654;23.370;2023-04-07T10:01:19;94446.47;;;12.20;31.27
36932;BME280;22847;42.654;23.370;2023-04-07T10:03:46;94383.34;;;11.82;31.98
36932;BME280;22847;42.654;23.370;2023-04-07T10:06:14;94450.75;;;12.29;30.82
36932;BME280;22847;42.654;23.370;2023-04-07T10:08:41;94462.59;;;12.81;32.57
36932;BME280;22847;42.654;23.370;2023-04-07T10:11:08;94434.13;;;12.78;32.40
36932;BME280;22847;42.654;23.370;2023-04-07T10:13:37;94445.56;;;12.77;31.64
36932;BME280;22847;42.654;23.370;2023-04-07T10:16:05;94452.44;;;12.86;31.86
36932;BME280;22847;42.654;23.370;2023-04-07T10:18:33;94465.53;;;12.94;31.15
36932;BME280;22847;42.654;23.370;2023-04-07T10:21:00;94494.81;;;12.82;31.59
36932;BME280;22847;42.654;23.370;2023-04-07T10:26:11;94414.72;;;11.98;32.27
36932;BME280;22847;42.654;23.370;2023-04-07T10:28:40;94448.44;;;12.18;31.30
36932;BME280;22847;42.654;23.370;2023-04-07T10:31:08;94440.44;;;12.19;31.39
36932;BME280;22847;42.654;23.370;2023-04-07T10:33:51;94434.06;;;12.30;30.75
36932;BME280;22847;42.654;23.370;2023-04-07T10:36:18;94452.34;;;12.22;31.44
36932;BME280;22847;42.654;23.370;2023-04-07T10:43:57;94279.53;;;10.92;33.60
36932;BME280;22847;42.654;23.370;2023-04-07T10:46:23;94471.34;;;12.32;32.21
36932;BME280;22847;42.654;23.370;2023-04-07T10:49:07;94481.84;;;11.98;32.50
36932;BME280;22847;42.654;23.370;2023-04-07T10:51:33;94504.56;;;11.97;33.17
36932;BME280;22847;42.654;23.370;2023-04-07T10:54:21;94479.66;;;12.19;36.29
36932;BME280;22847;42.654;23.370;2023-04-07T10:57:03;94315.38;;;11.24;35.77
36932;BME280;22847;42.654;23.370;2023-04-07T10:59:32;94412.31;;;12.05;35.91
36932;BME280;22847;42.654;23.370;2023-04-07T11:04:40;94473.28;;;12.30;34.37
36932;BME280;22847;42.654;23.370;2023-04-07T11:07:06;94479.69;;;12.35;33.64
36932;BME280;22847;42.654;23.370;2023-04-07T11:09:32;94461.75;;;11.98;34.00
36932;BME280;22847;42.654;23.370;2023-04-07T11:11:57;94447.34;;;11.86;34.90
36932;BME280;22847;42.654;23.370;2023-04-07T11:14:30;94491.53;;;12.05;34.31
36932;BME280;22847;42.654;23.370;2023-04-07T11:16:57;94452.88;;;11.75;34.71
36932;BME280;22847;42.654;23.370;2023-04-07T11:19:23;94522.69;;;11.99;34.60
36932;BME280;22847;42.654;23.370;2023-04-07T11:21:48;94348.75;;;11.12;35.44
36932;BME280;22847;42.654;23.370;2023-04-07T11:24:44;94482.84;;;12.05;35.03
36932;BME280;22847;42.654;23.370;2023-04-07T11:27:13;94482.13;;;12.29;34.74
36932;BME280;22847;42.654;23.370;2023-04-07T11:29:39;94285.44;;;11.02;35.68
36932;BME280;22847;42.654;23.370;2023-04-07T11:32:04;94445.78;;;12.01;35.01
36932;BME280;22847;42.654;23.370;2023-04-07T11:34:35;94485.38;;;12.31;35.58
36932;BME280;22847;42.654;23.370;2023-04-07T11:37:20;94494.94;;;12.56;35.42
36932;BME280;22847;42.654;23.370;2023-04-07T11:39:56;94353.78;;;11.82;34.05
36932;BME280;22847;42.654;23.370;2023-04-07T11:42:36;94478.69;;;12.20;34.16
36932;BME280;22847;42.654;23.370;2023-04-07T11:45:03;94468.03;;;12.22;35.46
36932;BME280;22847;42.654;23.370;2023-04-07T11:47:38;94484.41;;;12.24;34.96
36932;BME280;22847;42.654;23.370;2023-04-07T11:50:04;94496.19;;;12.36;34.89
36932;BME280;22847;42.654;23.370;2023-04-07T11:52:59;94484.47;;;12.64;34.48
36932;BME280;22847;42.654;23.370;2023-04-07T11:55:25;94465.97;;;12.33;35.27
36932;BME280;22847;42.654;23.370;2023-04-07T11:57:50;94060.50;;;9.74;35.46
36932;BME280;22847;42.654;23.370;2023-04-07T12:00:16;94376.53;;;11.97;35.38
36932;BME280;22847;42.654;23.370;2023-04-07T12:02:42;94428.09;;;11.87;36.21
36932;BME280;22847;42.654;23.370;2023-04-07T12:05:08;94474.69;;;12.08;36.90
36932;BME280;22847;42.654;23.370;2023-04-07T12:07:36;94469.81;;;12.13;37.93
36932;BME280;22847;42.654;23.370;2023-04-07T12:10:23;94480.88;;;11.99;37.32
36932;BME280;22847;42.654;23.370;2023-04-07T12:12:50;94313.00;;;11.05;38.34
36932;BME280;22847;42.654;23.370;2023-04-07T12:15:16;94461.69;;;11.82;37.37
36932;BME280;22847;42.654;23.370;2023-04-07T12:17:46;94473.03;;;11.99;36.70
36932;BME280;22847;42.654;23.370;2023-04-07T12:20:13;94485.75;;;11.94;37.17
36932;BME280;22847;42.654;23.370;2023-04-07T12:22:39;94428.78;;;11.63;37.32
36932;BME280;22847;42.654;23.370;2023-04-07T12:25:05;94333.50;;;11.26;37.55
36932;BME280;22847;42.654;23.370;2023-04-07T12:27:31;94482.97;;;12.37;36.85
36932;BME280;22847;42.654;23.370;2023-04-07T12:29:57;94399.50;;;11.86;37.24
36932;BME280;22847;42.654;23.370;2023-04-07T12:32:22;94472.63;;;12.28;36.11
36932;BME280;22847;42.654;23.370;2023-04-07T12:34:48;94493.09;;;12.40;36.69
36932;BME280;22847;42.654;23.370;2023-04-07T12:37:13;94434.66;;;11.99;36.76
36932;BME280;22847;42.654;23.370;2023-04-07T12:39:38;94467.72;;;12.25;36.58
36932;BME280;22847;42.654;23.370;2023-04-07T12:42:04;94475.25;;;12.36;35.80
36932;BME280;22847;42.654;23.370;2023-04-07T12:44:30;94335.22;;;11.51;38.07
36932;BME280;22847;42.654;23.370;2023-04-07T12:46:56;94482.63;;;12.32;37.12
36932;BME280;22847;42.654;23.370;2023-04-07T12:49:21;94465.19;;;11.99;37.19
36932;BME280;22847;42.654;23.370;2023-04-07T12:51:47;94479.03;;;11.83;38.09
36932;BME280;22847;42.654;23.370;2023-04-07T12:54:13;94482.72;;;12.15;37.24
36932;BME280;22847;42.654;23.370;2023-04-07T12:56:39;94479.78;;;12.10;37.34
36932;BME280;22847;42.654;23.370;2023-04-07T12:59:06;94399.22;;;11.63;36.86
36932;BME280;22847;42.654;23.370;2023-04-07T13:01:33;94478.50;;;12.22;38.19
36932;BME280;22847;42.654;23.370;2023-04-07T13:03:59;94493.75;;;12.42;36.71
36932;BME280;22847;42.654;23.370;2023-04-07T13:06:26;94490.50;;;12.48;37.65
36932;BME280;22847;42.654;23.370;2023-04-07T13:08:52;94487.63;;;12.18;36.38
36932;BME280;22847;42.654;23.370;2023-04-07T13:11:18;94365.81;;;11.33;36.77
36932;BME280;22847;42.654;23.370;2023-04-07T13:13:43;94490.38;;;12.08;37.68
36932;BME280;22847;42.654;23.370;2023-04-07T13:16:09;94490.50;;;11.98;37.25
36932;BME280;22847;42.654;23.370;2023-04-07T13:18:35;94485.44;;;11.71;37.62